sensor_id;sensor_type;location;lat;lon;timestamp;P1;durP1;ratioP1;P2;durP2;ratioP2
73107;SDS011;61559;50.476;15.588;2022-08-19T00:00:32;7.00;;;4.10;;
73107;SDS011;61559;50.476;15.588;2022-08-19T00:03:06;6.80;;;4.20;;
73107;SDS011;61559;50.476;15.588;2022-08-19T00:05:37;6.90;;;4.30;;
73107;SDS011;61559;50.476;15.588;2022-08-19T00:08:08;6.30;;;3.70;;
73107;SDS011;61559;50.476;15.588;2022-08-19T00:10:39;6.50;;;4.40;;
73107;SDS011;61559;50.476;15.588;2022-08-19T00:13:10;5.30;;;3.70;;
73107;SDS011;61559;50.476;15.588;2022-08-19T00:15:42;4.50;;;3.80;;
73107;SDS011;61559;50.476;15.588;2022-08-19T00:18:13;6.50;;;3.80;;
73107;SDS011;61559;50.476;15.588;2022-08-19T00:20:44;5.80;;;4.50;;
73107;SDS011;61559;50.476;15.588;2022-08-19T00:23:16;9.00;;;4.40;;
73107;SDS011;61559;50.476;15.588;2022-08-19T00:25:48;7.30;;;4.60;;
73107;SDS011;61559;50.476;15.588;2022-08-19T00:28:25;5.80;;;4.30;;
73107;SDS011;61559;50.476;15.588;2022-08-19T00:30:59;5.40;;;4.00;;
73107;SDS011;61559;50.476;15.588;2022-08-19T00:33:31;5.50;;;3.90;;
73107;SDS011;61559;50.476;15.588;2022-08-19T00:36:03;6.10;;;3.70;;
73107;SDS011;61559;50.476;15.588;2022-08-19T00:38:38;7.00;;;4.00;;
73107;SDS011;61559;50.476;15.588;2022-08-19T00:41:12;5.10;;;4.40;;
73107;SDS011;61559;50.476;15.588;2022-08-19T00:43:50;4.70;;;3.70;;
73107;SDS011;61559;50.476;15.588;2022-08-19T00:46:27;4.80;;;3.80;;
73107;SDS011;61559;50.476;15.588;2022-08-19T00:48:59;6.80;;;4.30;;
73107;SDS011;61559;50.476;15.588;2022-08-19T00:51:32;8.00;;;4.30;;
73107;SDS011;61559;50.476;15.588;2022-08-19T00:54:03;6.50;;;4.10;;
73107;SDS011;61559;50.476;15.588;2022-08-19T00:56:34;5.80;;;3.70;;
73107;SDS011;61559;50.476;15.588;2022-08-19T00:59:08;7.30;;;4.20;;
73107;SDS011;61559;50.476;15.588;2022-08-19T01:02:00;6.80;;;4.50;;
73107;SDS011;61559;50.476;15.588;2022-08-19T01:04:32;6.20;;;4.60;;
73107;SDS011;61559;50.476;15.588;2022-08-19T01:07:04;7.50;;;4.60;;
73107;SDS011;61559;50.476;15.588;2022-08-19T01:09:35;8.70;;;5.70;;
73107;SDS011;61559;50.476;15.588;2022-08-19T01:12:06;6.70;;;5.50;;
73107;SDS011;61559;50.476;15.588;2022-08-19T01:14:37;6.60;;;4.90;;
73107;SDS011;61559;50.476;15.588;2022-08-19T01:17:09;6.00;;;4.80;;
73107;SDS011;61559;50.476;15.588;2022-08-19T01:19:42;8.10;;;4.50;;
73107;SDS011;61559;50.476;15.588;2022-08-19T01:22:17;6.20;;;4.60;;
73107;SDS011;61559;50.476;15.588;2022-08-19T01:25:00;7.70;;;5.00;;
73107;SDS011;61559;50.476;15.588;2022-08-19T01:27:41;6.80;;;4.60;;
73107;SDS011;61559;50.476;15.588;2022-08-19T01:30:15;9.90;;;4.90;;
73107;SDS011;61559;50.476;15.588;2022-08-19T01:32:50;7.40;;;5.00;;
73107;SDS011;61559;50.476;15.588;2022-08-19T01:35:23;8.00;;;4.80;;
73107;SDS011;61559;50.476;15.588;2022-08-19T01:37:58;6.80;;;4.80;;
73107;SDS011;61559;50.476;15.588;2022-08-19T01:40:32;7.90;;;5.60;;
73107;SDS011;61559;50.476;15.588;2022-08-19T01:43:04;6.40;;;4.40;;
73107;SDS011;61559;50.476;15.588;2022-08-19T01:45:35;6.60;;;5.30;;
73107;SDS011;61559;50.476;15.588;2022-08-19T01:48:08;6.80;;;4.70;;
73107;SDS011;61559;50.476;15.588;2022-08-19T01:50:39;9.00;;;5.70;;
73107;SDS011;61559;50.476;15.588;2022-08-19T01:53:11;7.50;;;4.80;;
73107;SDS011;61559;50.476;15.588;2022-08-19T01:55:43;9.20;;;5.30;;
73107;SDS011;61559;50.476;15.588;2022-08-19T01:58:17;6.60;;;5.10;;
73107;SDS011;61559;50.476;15.588;2022-08-19T02:00:51;7.30;;;5.60;;
73107;SDS011;61559;50.476;15.588;2022-08-19T02:03:22;9.30;;;6.20;;
73107;SDS011;61559;50.476;15.588;2022-08-19T02:05:57;8.20;;;6.10;;
73107;SDS011;61559;50.476;15.588;2022-08-19T02:08:31;7.90;;;5.50;;
73107;SDS011;61559;50.476;15.588;2022-08-19T02:11:05;8.10;;;5.20;;
73107;SDS011;61559;50.476;15.588;2022-08-19T02:13:37;7.00;;;5.50;;
73107;SDS011;61559;50.476;15.588;2022-08-19T02:16:08;7.30;;;4.90;;
73107;SDS011;61559;50.476;15.588;2022-08-19T02:18:39;7.40;;;5.20;;
73107;SDS011;61559;50.476;15.588;2022-08-19T02:21:10;7.00;;;5.80;;
73107;SDS011;61559;50.476;15.588;2022-08-19T02:23:42;8.00;;;6.20;;
73107;SDS011;61559;50.476;15.588;2022-08-19T02:26:14;7.60;;;5.50;;
73107;SDS011;61559;50.476;15.588;2022-08-19T02:28:46;7.20;;;5.70;;
73107;SDS011;61559;50.476;15.588;2022-08-19T02:31:18;8.70;;;5.40;;
73107;SDS011;61559;50.476;15.588;2022-08-19T02:33:53;7.70;;;5.70;;
73107;SDS011;61559;50.476;15.588;2022-08-19T02:36:25;5.60;;;5.00;;
73107;SDS011;61559;50.476;15.588;2022-08-19T02:38:57;7.80;;;5.10;;
73107;SDS011;61559;50.476;15.588;2022-08-19T02:41:29;6.30;;;5.20;;
73107;SDS011;61559;50.476;15.588;2022-08-19T02:44:02;7.40;;;5.20;;
73107;SDS011;61559;50.476;15.588;2022-08-19T02:46:53;8.00;;;5.90;;
73107;SDS011;61559;50.476;15.588;2022-08-19T02:49:24;8.90;;;6.00;;
73107;SDS011;61559;50.476;15.588;2022-08-19T02:52:02;7.80;;;6.20;;
73107;SDS011;61559;50.476;15.588;2022-08-19T02:54:33;7.80;;;5.80;;
73107;SDS011;61559;50.476;15.588;2022-08-19T02:57:05;8.20;;;5.70;;
73107;SDS011;61559;50.476;15.588;2022-08-19T02:59:36;6.80;;;5.80;;
73107;SDS011;61559;50.476;15.588;2022-08-19T03:02:08;9.10;;;6.60;;
73107;SDS011;61559;50.476;15.588;2022-08-19T03:04:38;8.00;;;6.00;;
73107;SDS011;61559;50.476;15.588;2022-08-19T03:07:12;9.00;;;6.10;;
73107;SDS011;61559;50.476;15.588;2022-08-19T03:09:44;9.40;;;5.90;;
73107;SDS011;61559;50.476;15.588;2022-08-19T03:12:15;7.70;;;5.80;;
73107;SDS011;61559;50.476;15.588;2022-08-19T03:14:46;8.50;;;6.20;;
73107;SDS011;61559;50.476;15.588;2022-08-19T03:17:17;9.00;;;5.90;;
73107;SDS011;61559;50.476;15.588;2022-08-19T03:19:48;10.10;;;6.40;;
73107;SDS011;61559;50.476;15.588;2022-08-19T03:22:19;9.60;;;6.20;;
73107;SDS011;61559;50.476;15.588;2022-08-19T03:24:50;8.50;;;5.60;;
73107;SDS011;61559;50.476;15.588;2022-08-19T03:27:22;6.50;;;5.60;;
73107;SDS011;61559;50.476;15.588;2022-08-19T03:30:01;8.30;;;5.70;;
73107;SDS011;61559;50.476;15.588;2022-08-19T03:32:38;8.20;;;5.60;;
73107;SDS011;61559;50.476;15.588;2022-08-19T03:35:12;7.50;;;4.90;;
73107;SDS011;61559;50.476;15.588;2022-08-19T03:37:44;5.50;;;5.00;;
73107;SDS011;61559;50.476;15.588;2022-08-19T03:40:15;6.70;;;5.10;;
73107;SDS011;61559;50.476;15.588;2022-08-19T03:42:47;6.90;;;5.10;;
73107;SDS011;61559;50.476;15.588;2022-08-19T03:45:18;8.30;;;6.20;;
73107;SDS011;61559;50.476;15.588;2022-08-19T03:47:49;11.50;;;6.50;;
73107;SDS011;61559;50.476;15.588;2022-08-19T03:50:21;10.10;;;5.60;;
73107;SDS011;61559;50.476;15.588;2022-08-19T03:52:52;7.10;;;5.20;;
73107;SDS011;61559;50.476;15.588;2022-08-19T03:55:23;8.50;;;5.50;;
73107;SDS011;61559;50.476;15.588;2022-08-19T03:57:54;5.90;;;4.70;;
73107;SDS011;61559;50.476;15.588;2022-08-19T04:00:26;7.00;;;4.40;;
73107;SDS011;61559;50.476;15.588;2022-08-19T04:02:57;7.60;;;5.90;;
73107;SDS011;61559;50.476;15.588;2022-08-19T04:05:28;7.90;;;6.10;;
73107;SDS011;61559;50.476;15.588;2022-08-19T04:07:59;9.90;;;5.10;;
73107;SDS011;61559;50.476;15.588;2022-08-19T04:10:31;10.50;;;5.00;;
73107;SDS011;61559;50.476;15.588;2022-08-19T04:13:06;6.80;;;5.10;;
73107;SDS011;61559;50.476;15.588;2022-08-19T04:15:39;9.70;;;5.90;;
73107;SDS011;61559;50.476;15.588;2022-08-19T04:18:12;7.20;;;5.60;;
73107;SDS011;61559;50.476;15.588;2022-08-19T04:20:45;6.80;;;5.50;;
73107;SDS011;61559;50.476;15.588;2022-08-19T04:23:16;7.60;;;5.00;;
73107;SDS011;61559;50.476;15.588;2022-08-19T04:25:48;7.40;;;5.10;;
73107;SDS011;61559;50.476;15.588;2022-08-19T04:28:19;9.80;;;5.50;;
73107;SDS011;61559;50.476;15.588;2022-08-19T04:30:51;8.20;;;4.40;;
73107;SDS011;61559;50.476;15.588;2022-08-19T04:33:24;9.00;;;4.60;;
73107;SDS011;61559;50.476;15.588;2022-08-19T04:35:55;7.50;;;4.90;;
73107;SDS011;61559;50.476;15.588;2022-08-19T04:38:27;5.90;;;4.60;;
73107;SDS011;61559;50.476;15.588;2022-08-19T04:40:58;8.00;;;5.10;;
73107;SDS011;61559;50.476;15.588;2022-08-19T04:43:49;8.60;;;5.20;;
73107;SDS011;61559;50.476;15.588;2022-08-19T04:46:20;8.60;;;5.00;;
73107;SDS011;61559;50.476;15.588;2022-08-19T04:49:07;8.00;;;5.40;;
73107;SDS011;61559;50.476;15.588;2022-08-19T04:51:41;6.40;;;4.90;;
73107;SDS011;61559;50.476;15.588;2022-08-19T04:54:15;8.80;;;4.60;;
73107;SDS011;61559;50.476;15.588;2022-08-19T04:57:06;7.70;;;5.40;;
73107;SDS011;61559;50.476;15.588;2022-08-19T04:59:38;7.20;;;4.50;;
73107;SDS011;61559;50.476;15.588;2022-08-19T05:02:09;8.30;;;5.00;;
73107;SDS011;61559;50.476;15.588;2022-08-19T05:04:40;7.10;;;4.80;;
73107;SDS011;61559;50.476;15.588;2022-08-19T05:07:11;6.30;;;4.90;;
73107;SDS011;61559;50.476;15.588;2022-08-19T05:09:42;7.50;;;5.40;;
73107;SDS011;61559;50.476;15.588;2022-08-19T05:14:57;8.40;;;5.20;;
73107;SDS011;61559;50.476;15.588;2022-08-19T05:17:28;6.00;;;4.90;;
73107;SDS011;61559;50.476;15.588;2022-08-19T05:20:06;8.20;;;5.30;;
73107;SDS011;61559;50.476;15.588;2022-08-19T05:22:56;6.00;;;4.80;;
73107;SDS011;61559;50.476;15.588;2022-08-19T05:25:27;9.20;;;5.00;;
73107;SDS011;61559;50.476;15.588;2022-08-19T05:27:58;7.30;;;4.80;;
73107;SDS011;61559;50.476;15.588;2022-08-19T05:30:29;8.50;;;5.50;;
73107;SDS011;61559;50.476;15.588;2022-08-19T05:33:14;6.90;;;5.00;;
73107;SDS011;61559;50.476;15.588;2022-08-19T05:35:45;7.00;;;4.60;;
73107;SDS011;61559;50.476;15.588;2022-08-19T05:38:17;6.50;;;4.60;;
73107;SDS011;61559;50.476;15.588;2022-08-19T05:40:49;6.10;;;4.70;;
73107;SDS011;61559;50.476;15.588;2022-08-19T05:43:20;6.40;;;4.10;;
73107;SDS011;61559;50.476;15.588;2022-08-19T05:45:51;4.90;;;4.10;;
73107;SDS011;61559;50.476;15.588;2022-08-19T05:48:22;7.70;;;4.50;;
73107;SDS011;61559;50.476;15.588;2022-08-19T05:50:53;7.20;;;4.60;;
73107;SDS011;61559;50.476;15.588;2022-08-19T05:53:24;8.50;;;4.90;;
73107;SDS011;61559;50.476;15.588;2022-08-19T05:55:55;9.10;;;4.70;;
73107;SDS011;61559;50.476;15.588;2022-08-19T05:58:27;6.20;;;5.20;;
73107;SDS011;61559;50.476;15.588;2022-08-19T06:00:59;6.40;;;4.30;;
73107;SDS011;61559;50.476;15.588;2022-08-19T06:03:33;8.20;;;5.40;;
73107;SDS011;61559;50.476;15.588;2022-08-19T06:06:08;6.00;;;4.30;;
73107;SDS011;61559;50.476;15.588;2022-08-19T06:08:41;5.80;;;3.90;;
73107;SDS011;61559;50.476;15.588;2022-08-19T06:11:17;6.00;;;4.10;;
73107;SDS011;61559;50.476;15.588;2022-08-19T06:13:52;8.50;;;4.40;;
73107;SDS011;61559;50.476;15.588;2022-08-19T06:19:02;6.20;;;4.00;;
73107;SDS011;61559;50.476;15.588;2022-08-19T06:21:35;7.30;;;4.20;;
73107;SDS011;61559;50.476;15.588;2022-08-19T06:24:09;6.30;;;4.00;;
73107;SDS011;61559;50.476;15.588;2022-08-19T06:26:43;5.90;;;4.80;;
73107;SDS011;61559;50.476;15.588;2022-08-19T06:29:22;6.90;;;5.70;;
73107;SDS011;61559;50.476;15.588;2022-08-19T06:31:55;8.10;;;5.20;;
73107;SDS011;61559;50.476;15.588;2022-08-19T06:34:29;10.30;;;6.40;;
73107;SDS011;61559;50.476;15.588;2022-08-19T06:37:02;10.50;;;6.40;;
73107;SDS011;61559;50.476;15.588;2022-08-19T06:39:35;10.50;;;6.50;;
73107;SDS011;61559;50.476;15.588;2022-08-19T06:42:07;9.40;;;6.00;;
73107;SDS011;61559;50.476;15.588;2022-08-19T06:44:47;10.90;;;6.60;;
73107;SDS011;61559;50.476;15.588;2022-08-19T06:47:20;9.30;;;6.90;;
73107;SDS011;61559;50.476;15.588;2022-08-19T06:49:56;9.60;;;7.30;;
73107;SDS011;61559;50.476;15.588;2022-08-19T06:55:04;10.40;;;7.20;;
73107;SDS011;61559;50.476;15.588;2022-08-19T06:57:36;9.00;;;7.10;;
73107;SDS011;61559;50.476;15.588;2022-08-19T07:00:08;10.00;;;7.30;;
73107;SDS011;61559;50.476;15.588;2022-08-19T07:02:41;11.50;;;8.20;;
73107;SDS011;61559;50.476;15.588;2022-08-19T07:05:22;11.20;;;8.50;;
73107;SDS011;61559;50.476;15.588;2022-08-19T07:07:54;10.30;;;7.90;;
73107;SDS011;61559;50.476;15.588;2022-08-19T07:10:31;14.70;;;8.40;;
73107;SDS011;61559;50.476;15.588;2022-08-19T07:13:09;13.90;;;8.80;;
73107;SDS011;61559;50.476;15.588;2022-08-19T07:15:41;12.10;;;7.60;;
73107;SDS011;61559;50.476;15.588;2022-08-19T07:18:14;12.80;;;8.30;;
73107;SDS011;61559;50.476;15.588;2022-08-19T07:20:45;10.00;;;7.20;;
73107;SDS011;61559;50.476;15.588;2022-08-19T07:23:16;12.10;;;8.40;;
73107;SDS011;61559;50.476;15.588;2022-08-19T07:25:50;11.90;;;8.70;;
73107;SDS011;61559;50.476;15.588;2022-08-19T07:28:21;12.60;;;8.30;;
73107;SDS011;61559;50.476;15.588;2022-08-19T07:30:54;10.30;;;8.00;;
73107;SDS011;61559;50.476;15.588;2022-08-19T07:33:25;12.80;;;7.60;;
73107;SDS011;61559;50.476;15.588;2022-08-19T07:36:00;9.80;;;7.80;;
73107;SDS011;61559;50.476;15.588;2022-08-19T07:38:31;8.40;;;7.20;;
73107;SDS011;61559;50.476;15.588;2022-08-19T07:41:03;11.70;;;7.80;;
73107;SDS011;61559;50.476;15.588;2022-08-19T07:43:34;13.50;;;9.50;;
73107;SDS011;61559;50.476;15.588;2022-08-19T07:46:06;14.00;;;9.20;;
73107;SDS011;61559;50.476;15.588;2022-08-19T07:51:14;11.50;;;8.60;;
73107;SDS011;61559;50.476;15.588;2022-08-19T07:54:04;11.50;;;8.50;;
73107;SDS011;61559;50.476;15.588;2022-08-19T07:56:35;13.70;;;8.70;;
73107;SDS011;61559;50.476;15.588;2022-08-19T07:59:07;14.50;;;9.60;;
73107;SDS011;61559;50.476;15.588;2022-08-19T08:01:39;14.10;;;10.30;;
73107;SDS011;61559;50.476;15.588;2022-08-19T08:04:10;15.00;;;10.80;;
73107;SDS011;61559;50.476;15.588;2022-08-19T08:06:59;16.20;;;12.30;;
73107;SDS011;61559;50.476;15.588;2022-08-19T08:09:58;16.10;;;11.00;;
73107;SDS011;61559;50.476;15.588;2022-08-19T08:12:32;15.30;;;9.90;;
73107;SDS011;61559;50.476;15.588;2022-08-19T08:15:10;14.50;;;10.40;;
73107;SDS011;61559;50.476;15.588;2022-08-19T08:17:44;15.10;;;11.40;;
73107;SDS011;61559;50.476;15.588;2022-08-19T08:20:18;13.80;;;11.20;;
73107;SDS011;61559;50.476;15.588;2022-08-19T08:22:50;11.80;;;9.80;;
73107;SDS011;61559;50.476;15.588;2022-08-19T08:28:08;13.70;;;11.10;;
73107;SDS011;61559;50.476;15.588;2022-08-19T08:30:45;14.50;;;10.30;;
73107;SDS011;61559;50.476;15.588;2022-08-19T08:33:18;16.20;;;10.60;;
73107;SDS011;61559;50.476;15.588;2022-08-19T08:36:02;15.30;;;11.10;;
73107;SDS011;61559;50.476;15.588;2022-08-19T08:38:37;14.80;;;10.60;;
73107;SDS011;61559;50.476;15.588;2022-08-19T08:41:11;13.60;;;10.20;;
73107;SDS011;61559;50.476;15.588;2022-08-19T08:43:49;15.30;;;10.70;;
73107;SDS011;61559;50.476;15.588;2022-08-19T08:46:22;13.80;;;9.90;;
73107;SDS011;61559;50.476;15.588;2022-08-19T08:49:01;14.70;;;11.20;;
73107;SDS011;61559;50.476;15.588;2022-08-19T08:51:39;13.60;;;10.20;;
73107;SDS011;61559;50.476;15.588;2022-08-19T08:54:16;12.60;;;10.00;;
73107;SDS011;61559;50.476;15.588;2022-08-19T08:56:49;14.70;;;10.10;;
73107;SDS011;61559;50.476;15.588;2022-08-19T08:59:23;14.20;;;10.50;;
73107;SDS011;61559;50.476;15.588;2022-08-19T09:02:03;11.40;;;9.40;;
73107;SDS011;61559;50.476;15.588;2022-08-19T09:04:35;13.70;;;10.50;;
73107;SDS011;61559;50.476;15.588;2022-08-19T09:07:13;13.80;;;10.90;;
73107;SDS011;61559;50.476;15.588;2022-08-19T09:10:07;12.30;;;10.50;;
73107;SDS011;61559;50.476;15.588;2022-08-19T09:12:47;13.70;;;11.30;;
73107;SDS011;61559;50.476;15.588;2022-08-19T09:15:29;13.60;;;10.40;;
73107;SDS011;61559;50.476;15.588;2022-08-19T09:18:07;14.10;;;11.60;;
73107;SDS011;61559;50.476;15.588;2022-08-19T09:20:47;13.50;;;9.90;;
73107;SDS011;61559;50.476;15.588;2022-08-19T09:23:18;13.80;;;11.10;;
73107;SDS011;61559;50.476;15.588;2022-08-19T09:25:54;15.30;;;12.40;;
73107;SDS011;61559;50.476;15.588;2022-08-19T09:28:25;13.30;;;11.30;;
73107;SDS011;61559;50.476;15.588;2022-08-19T09:30:59;15.30;;;11.20;;
73107;SDS011;61559;50.476;15.588;2022-08-19T09:33:30;15.10;;;11.70;;
73107;SDS011;61559;50.476;15.588;2022-08-19T09:36:05;13.90;;;9.90;;
73107;SDS011;61559;50.476;15.588;2022-08-19T09:38:39;15.80;;;11.80;;
73107;SDS011;61559;50.476;15.588;2022-08-19T09:41:11;11.30;;;10.10;;
73107;SDS011;61559;50.476;15.588;2022-08-19T09:43:45;18.00;;;12.40;;
73107;SDS011;61559;50.476;15.588;2022-08-19T09:46:20;14.10;;;11.20;;
73107;SDS011;61559;50.476;15.588;2022-08-19T09:48:52;12.80;;;10.50;;
73107;SDS011;61559;50.476;15.588;2022-08-19T09:51:30;12.60;;;10.30;;
73107;SDS011;61559;50.476;15.588;2022-08-19T09:54:02;15.60;;;10.60;;
73107;SDS011;61559;50.476;15.588;2022-08-19T09:56:38;14.80;;;11.00;;
73107;SDS011;61559;50.476;15.588;2022-08-19T09:59:09;17.80;;;11.60;;
73107;SDS011;61559;50.476;15.588;2022-08-19T10:01:41;12.90;;;11.30;;
73107;SDS011;61559;50.476;15.588;2022-08-19T10:04:13;15.30;;;11.60;;
73107;SDS011;61559;50.476;15.588;2022-08-19T10:06:49;17.10;;;10.70;;
73107;SDS011;61559;50.476;15.588;2022-08-19T10:09:24;13.70;;;10.10;;
73107;SDS011;61559;50.476;15.588;2022-08-19T10:12:03;14.90;;;10.30;;
73107;SDS011;61559;50.476;15.588;2022-08-19T10:14:38;13.80;;;10.40;;
73107;SDS011;61559;50.476;15.588;2022-08-19T10:17:09;14.30;;;10.90;;
73107;SDS011;61559;50.476;15.588;2022-08-19T10:19:48;12.10;;;9.50;;
73107;SDS011;61559;50.476;15.588;2022-08-19T10:22:23;10.40;;;9.30;;
73107;SDS011;61559;50.476;15.588;2022-08-19T10:24:54;14.80;;;10.60;;
73107;SDS011;61559;50.476;15.588;2022-08-19T10:27:25;12.20;;;10.40;;
73107;SDS011;61559;50.476;15.588;2022-08-19T10:29:59;15.60;;;12.10;;
73107;SDS011;61559;50.476;15.588;2022-08-19T10:32:30;15.40;;;12.60;;
73107;SDS011;61559;50.476;15.588;2022-08-19T10:35:02;14.50;;;11.20;;
73107;SDS011;61559;50.476;15.588;2022-08-19T10:37:36;13.10;;;11.50;;
73107;SDS011;61559;50.476;15.588;2022-08-19T10:40:24;15.10;;;11.50;;
73107;SDS011;61559;50.476;15.588;2022-08-19T10:42:56;13.40;;;11.30;;
73107;SDS011;61559;50.476;15.588;2022-08-19T10:45:27;17.30;;;12.10;;
73107;SDS011;61559;50.476;15.588;2022-08-19T10:47:58;14.10;;;10.50;;
73107;SDS011;61559;50.476;15.588;2022-08-19T10:50:29;14.70;;;12.50;;
73107;SDS011;61559;50.476;15.588;2022-08-19T10:53:17;13.30;;;11.30;;
73107;SDS011;61559;50.476;15.588;2022-08-19T10:55:53;16.50;;;12.40;;
73107;SDS011;61559;50.476;15.588;2022-08-19T10:58:42;16.00;;;11.50;;
73107;SDS011;61559;50.476;15.588;2022-08-19T11:01:13;16.50;;;13.20;;
73107;SDS011;61559;50.476;15.588;2022-08-19T11:03:44;17.10;;;13.20;;
73107;SDS011;61559;50.476;15.588;2022-08-19T11:06:15;14.90;;;12.30;;
73107;SDS011;61559;50.476;15.588;2022-08-19T11:08:47;17.70;;;12.10;;
73107;SDS011;61559;50.476;15.588;2022-08-19T11:11:18;17.60;;;13.10;;
73107;SDS011;61559;50.476;15.588;2022-08-19T11:13:50;13.00;;;10.30;;
73107;SDS011;61559;50.476;15.588;2022-08-19T11:16:22;15.60;;;11.40;;
73107;SDS011;61559;50.476;15.588;2022-08-19T11:18:58;14.30;;;11.10;;
73107;SDS011;61559;50.476;15.588;2022-08-19T11:21:32;13.60;;;11.90;;
73107;SDS011;61559;50.476;15.588;2022-08-19T11:24:06;13.90;;;9.20;;
73107;SDS011;61559;50.476;15.588;2022-08-19T11:26:39;16.10;;;10.40;;
73107;SDS011;61559;50.476;15.588;2022-08-19T11:29:12;16.70;;;10.70;;
73107;SDS011;61559;50.476;15.588;2022-08-19T11:31:44;13.70;;;10.80;;
73107;SDS011;61559;50.476;15.588;2022-08-19T11:34:18;12.60;;;9.80;;
73107;SDS011;61559;50.476;15.588;2022-08-19T11:36:50;14.50;;;10.90;;
73107;SDS011;61559;50.476;15.588;2022-08-19T11:39:26;12.60;;;9.40;;
73107;SDS011;61559;50.476;15.588;2022-08-19T11:41:59;9.70;;;8.40;;
73107;SDS011;61559;50.476;15.588;2022-08-19T11:44:30;9.90;;;8.80;;
73107;SDS011;61559;50.476;15.588;2022-08-19T11:47:04;12.90;;;8.90;;
73107;SDS011;61559;50.476;15.588;2022-08-19T11:49:36;12.90;;;9.50;;
73107;SDS011;61559;50.476;15.588;2022-08-19T11:52:07;10.30;;;8.70;;
73107;SDS011;61559;50.476;15.588;2022-08-19T11:54:38;12.80;;;8.70;;
73107;SDS011;61559;50.476;15.588;2022-08-19T11:57:12;10.50;;;7.90;;
73107;SDS011;61559;50.476;15.588;2022-08-19T11:59:48;11.50;;;9.40;;
73107;SDS011;61559;50.476;15.588;2022-08-19T12:02:20;9.00;;;8.10;;
73107;SDS011;61559;50.476;15.588;2022-08-19T12:04:51;15.50;;;8.90;;
73107;SDS011;61559;50.476;15.588;2022-08-19T12:07:23;10.80;;;8.10;;
73107;SDS011;61559;50.476;15.588;2022-08-19T12:09:54;9.80;;;7.90;;
73107;SDS011;61559;50.476;15.588;2022-08-19T12:12:25;8.20;;;7.40;;
73107;SDS011;61559;50.476;15.588;2022-08-19T12:14:57;10.70;;;7.70;;
73107;SDS011;61559;50.476;15.588;2022-08-19T12:17:28;10.20;;;8.10;;
73107;SDS011;61559;50.476;15.588;2022-08-19T12:19:59;11.80;;;8.90;;
73107;SDS011;61559;50.476;15.588;2022-08-19T12:22:31;11.40;;;7.70;;
73107;SDS011;61559;50.476;15.588;2022-08-19T12:25:02;9.70;;;7.50;;
73107;SDS011;61559;50.476;15.588;2022-08-19T12:27:35;9.00;;;8.00;;
73107;SDS011;61559;50.476;15.588;2022-08-19T12:30:10;9.30;;;7.40;;
73107;SDS011;61559;50.476;15.588;2022-08-19T12:32:42;9.20;;;7.50;;
73107;SDS011;61559;50.476;15.588;2022-08-19T12:35:13;9.30;;;7.20;;
73107;SDS011;61559;50.476;15.588;2022-08-19T12:37:45;8.70;;;7.00;;
73107;SDS011;61559;50.476;15.588;2022-08-19T12:40:24;11.90;;;7.80;;
73107;SDS011;61559;50.476;15.588;2022-08-19T12:42:55;8.80;;;7.60;;
73107;SDS011;61559;50.476;15.588;2022-08-19T12:45:27;10.90;;;7.80;;
73107;SDS011;61559;50.476;15.588;2022-08-19T12:47:58;11.20;;;7.40;;
73107;SDS011;61559;50.476;15.588;2022-08-19T12:50:51;10.20;;;7.50;;
73107;SDS011;61559;50.476;15.588;2022-08-19T12:53:22;9.00;;;7.40;;
73107;SDS011;61559;50.476;15.588;2022-08-19T12:55:56;8.20;;;7.40;;
73107;SDS011;61559;50.476;15.588;2022-08-19T12:58:28;11.60;;;7.40;;
73107;SDS011;61559;50.476;15.588;2022-08-19T13:01:00;8.00;;;6.90;;
73107;SDS011;61559;50.476;15.588;2022-08-19T13:03:37;7.50;;;6.50;;
73107;SDS011;61559;50.476;15.588;2022-08-19T13:06:09;8.70;;;6.60;;
73107;SDS011;61559;50.476;15.588;2022-08-19T13:08:40;12.00;;;6.40;;
73107;SDS011;61559;50.476;15.588;2022-08-19T13:11:14;7.30;;;6.50;;
73107;SDS011;61559;50.476;15.588;2022-08-19T13:13:48;7.30;;;6.50;;
73107;SDS011;61559;50.476;15.588;2022-08-19T13:16:20;8.20;;;6.20;;
73107;SDS011;61559;50.476;15.588;2022-08-19T13:18:51;10.60;;;6.20;;
73107;SDS011;61559;50.476;15.588;2022-08-19T13:21:23;9.90;;;7.60;;
73107;SDS011;61559;50.476;15.588;2022-08-19T13:23:58;7.40;;;6.70;;
73107;SDS011;61559;50.476;15.588;2022-08-19T13:26:29;7.80;;;7.00;;
73107;SDS011;61559;50.476;15.588;2022-08-19T13:29:00;10.20;;;7.10;;
73107;SDS011;61559;50.476;15.588;2022-08-19T13:31:49;8.00;;;6.70;;
73107;SDS011;61559;50.476;15.588;2022-08-19T13:34:44;7.90;;;6.60;;
73107;SDS011;61559;50.476;15.588;2022-08-19T13:37:16;7.50;;;6.60;;
73107;SDS011;61559;50.476;15.588;2022-08-19T13:40:14;9.10;;;6.30;;
73107;SDS011;61559;50.476;15.588;2022-08-19T13:42:53;8.90;;;6.80;;
73107;SDS011;61559;50.476;15.588;2022-08-19T13:45:24;8.00;;;6.60;;
73107;SDS011;61559;50.476;15.588;2022-08-19T13:48:05;8.90;;;7.20;;
73107;SDS011;61559;50.476;15.588;2022-08-19T13:50:39;7.60;;;6.40;;
73107;SDS011;61559;50.476;15.588;2022-08-19T13:53:12;8.90;;;7.00;;
73107;SDS011;61559;50.476;15.588;2022-08-19T13:55:43;13.60;;;6.90;;
73107;SDS011;61559;50.476;15.588;2022-08-19T13:58:14;9.50;;;6.20;;
73107;SDS011;61559;50.476;15.588;2022-08-19T14:00:45;7.30;;;6.30;;
73107;SDS011;61559;50.476;15.588;2022-08-19T14:03:17;6.80;;;6.10;;
73107;SDS011;61559;50.476;15.588;2022-08-19T14:05:49;8.60;;;6.70;;
73107;SDS011;61559;50.476;15.588;2022-08-19T14:08:20;8.30;;;6.60;;
73107;SDS011;61559;50.476;15.588;2022-08-19T14:10:55;10.80;;;6.30;;
73107;SDS011;61559;50.476;15.588;2022-08-19T14:13:33;8.20;;;6.00;;
73107;SDS011;61559;50.476;15.588;2022-08-19T14:16:07;8.10;;;5.60;;
73107;SDS011;61559;50.476;15.588;2022-08-19T14:18:40;6.80;;;6.00;;
73107;SDS011;61559;50.476;15.588;2022-08-19T14:21:19;6.90;;;5.60;;
73107;SDS011;61559;50.476;15.588;2022-08-19T14:23:52;9.30;;;6.70;;
73107;SDS011;61559;50.476;15.588;2022-08-19T14:26:23;8.10;;;6.50;;
73107;SDS011;61559;50.476;15.588;2022-08-19T14:28:54;8.60;;;6.00;;
73107;SDS011;61559;50.476;15.588;2022-08-19T14:31:26;7.40;;;5.90;;
73107;SDS011;61559;50.476;15.588;2022-08-19T14:33:58;8.70;;;5.80;;
73107;SDS011;61559;50.476;15.588;2022-08-19T14:36:30;7.40;;;6.10;;
73107;SDS011;61559;50.476;15.588;2022-08-19T14:39:06;6.00;;;5.40;;
73107;SDS011;61559;50.476;15.588;2022-08-19T14:41:39;9.80;;;6.30;;
73107;SDS011;61559;50.476;15.588;2022-08-19T14:44:11;12.00;;;6.50;;
73107;SDS011;61559;50.476;15.588;2022-08-19T14:46:42;9.20;;;6.20;;
73107;SDS011;61559;50.476;15.588;2022-08-19T14:49:16;12.80;;;6.30;;
73107;SDS011;61559;50.476;15.588;2022-08-19T14:51:56;8.20;;;5.90;;
73107;SDS011;61559;50.476;15.588;2022-08-19T14:54:27;11.00;;;6.70;;
73107;SDS011;61559;50.476;15.588;2022-08-19T14:56:58;8.00;;;6.30;;
73107;SDS011;61559;50.476;15.588;2022-08-19T14:59:29;10.20;;;6.10;;
73107;SDS011;61559;50.476;15.588;2022-08-19T15:02:00;6.60;;;5.70;;
73107;SDS011;61559;50.476;15.588;2022-08-19T15:04:51;8.90;;;7.20;;
73107;SDS011;61559;50.476;15.588;2022-08-19T15:07:26;10.40;;;7.70;;
73107;SDS011;61559;50.476;15.588;2022-08-19T15:09:57;11.30;;;8.50;;
73107;SDS011;61559;50.476;15.588;2022-08-19T15:12:28;8.10;;;6.20;;
73107;SDS011;61559;50.476;15.588;2022-08-19T15:15:00;10.40;;;6.20;;
73107;SDS011;61559;50.476;15.588;2022-08-19T15:17:32;12.90;;;7.10;;